sensor_id;sensor_type;location;lat;lon;timestamp;P1;durP1;ratioP1;P2;durP2;ratioP2
5349;SDS011;2697;42.144;24.794;2023-07-20T00:00:26;21.50;;;6.50;;
5349;SDS011;2697;42.144;24.794;2023-07-20T00:02:52;9.10;;;5.70;;
5349;SDS011;2697;42.144;24.794;2023-07-20T00:05:17;16.83;;;7.40;;
5349;SDS011;2697;42.144;24.794;2023-07-20T00:07:49;14.83;;;5.97;;
5349;SDS011;2697;42.144;24.794;2023-07-20T00:10:17;34.00;;;7.10;;
5349;SDS011;2697;42.144;24.794;2023-07-20T00:12:42;14.80;;;7.47;;
5349;SDS011;2697;42.144;24.794;2023-07-20T00:15:12;18.13;;;8.03;;
5349;SDS011;2697;42.144;24.794;2023-07-20T00:17:38;13.20;;;7.23;;
5349;SDS011;2697;42.144;24.794;2023-07-20T00:20:05;17.03;;;6.40;;
5349;SDS011;2697;42.144;24.794;2023-07-20T00:22:31;11.40;;;6.60;;
5349;SDS011;2697;42.144;24.794;2023-07-20T00:24:56;16.17;;;6.27;;
5349;SDS011;2697;42.144;24.794;2023-07-20T00:27:22;17.10;;;5.77;;
5349;SDS011;2697;42.144;24.794;2023-07-20T00:29:47;19.53;;;6.57;;
5349;SDS011;2697;42.144;24.794;2023-07-20T00:32:12;8.73;;;5.40;;
5349;SDS011;2697;42.144;24.794;2023-07-20T00:34:38;18.33;;;5.37;;
5349;SDS011;2697;42.144;24.794;2023-07-20T00:37:03;13.67;;;5.53;;
5349;SDS011;2697;42.144;24.794;2023-07-20T00:39:29;17.17;;;5.73;;
5349;SDS011;2697;42.144;24.794;2023-07-20T00:41:54;15.83;;;6.53;;
5349;SDS011;2697;42.144;24.794;2023-07-20T00:44:20;8.13;;;4.80;;
5349;SDS011;2697;42.144;24.794;2023-07-20T00:46:46;11.43;;;5.10;;
5349;SDS011;2697;42.144;24.794;2023-07-20T00:49:11;11.20;;;6.10;;
5349;SDS011;2697;42.144;24.794;2023-07-20T00:51:38;15.10;;;6.20;;
5349;SDS011;2697;42.144;24.794;2023-07-20T00:54:04;21.30;;;5.90;;
5349;SDS011;2697;42.144;24.794;2023-07-20T00:56:29;21.93;;;6.10;;
5349;SDS011;2697;42.144;24.794;2023-07-20T00:58:55;10.70;;;5.37;;
5349;SDS011;2697;42.144;24.794;2023-07-20T01:01:21;14.37;;;5.70;;
5349;SDS011;2697;42.144;24.794;2023-07-20T01:03:47;17.60;;;5.20;;
5349;SDS011;2697;42.144;24.794;2023-07-20T01:06:26;9.20;;;5.87;;
5349;SDS011;2697;42.144;24.794;2023-07-20T01:14:24;18.10;;;5.70;;
5349;SDS011;2697;42.144;24.794;2023-07-20T01:16:50;11.93;;;5.10;;
5349;SDS011;2697;42.144;24.794;2023-07-20T01:19:17;12.93;;;5.43;;
5349;SDS011;2697;42.144;24.794;2023-07-20T01:27:45;13.53;;;5.33;;
5349;SDS011;2697;42.144;24.794;2023-07-20T01:33:20;10.87;;;5.33;;
5349;SDS011;2697;42.144;24.794;2023-07-20T01:35:46;14.83;;;6.20;;
5349;SDS011;2697;42.144;24.794;2023-07-20T01:38:17;14.77;;;6.57;;
5349;SDS011;2697;42.144;24.794;2023-07-20T01:40:44;14.57;;;6.27;;
5349;SDS011;2697;42.144;24.794;2023-07-20T01:43:10;21.53;;;6.00;;
5349;SDS011;2697;42.144;24.794;2023-07-20T01:45:37;10.93;;;5.47;;
5349;SDS011;2697;42.144;24.794;2023-07-20T01:48:02;21.70;;;6.87;;
5349;SDS011;2697;42.144;24.794;2023-07-20T01:50:28;14.50;;;6.13;;
5349;SDS011;2697;42.144;24.794;2023-07-20T01:52:53;16.83;;;6.20;;
5349;SDS011;2697;42.144;24.794;2023-07-20T01:55:19;16.47;;;4.60;;
5349;SDS011;2697;42.144;24.794;2023-07-20T01:57:44;13.23;;;5.40;;
5349;SDS011;2697;42.144;24.794;2023-07-20T02:00:10;15.30;;;6.07;;
5349;SDS011;2697;42.144;24.794;2023-07-20T02:02:37;30.30;;;5.23;;
5349;SDS011;2697;42.144;24.794;2023-07-20T02:05:02;17.37;;;5.40;;
5349;SDS011;2697;42.144;24.794;2023-07-20T02:07:28;11.03;;;5.90;;
5349;SDS011;2697;42.144;24.794;2023-07-20T02:09:53;20.53;;;5.93;;
5349;SDS011;2697;42.144;24.794;2023-07-20T02:12:19;14.80;;;5.50;;
5349;SDS011;2697;42.144;24.794;2023-07-20T02:14:44;20.23;;;4.90;;
5349;SDS011;2697;42.144;24.794;2023-07-20T02:17:09;17.63;;;4.57;;
5349;SDS011;2697;42.144;24.794;2023-07-20T02:19:36;24.07;;;5.27;;
5349;SDS011;2697;42.144;24.794;2023-07-20T02:22:02;22.00;;;5.40;;
5349;SDS011;2697;42.144;24.794;2023-07-20T02:24:27;14.23;;;5.50;;
5349;SDS011;2697;42.144;24.794;2023-07-20T02:26:53;20.63;;;5.97;;
5349;SDS011;2697;42.144;24.794;2023-07-20T02:29:18;27.60;;;6.90;;
5349;SDS011;2697;42.144;24.794;2023-07-20T02:31:43;17.00;;;5.80;;
5349;SDS011;2697;42.144;24.794;2023-07-20T02:34:09;10.07;;;6.50;;
5349;SDS011;2697;42.144;24.794;2023-07-20T02:36:34;10.37;;;5.80;;
5349;SDS011;2697;42.144;24.794;2023-07-20T02:39:00;14.77;;;5.90;;
5349;SDS011;2697;42.144;24.794;2023-07-20T02:41:28;17.50;;;6.30;;
5349;SDS011;2697;42.144;24.794;2023-07-20T02:43:54;11.23;;;5.80;;
5349;SDS011;2697;42.144;24.794;2023-07-20T02:46:19;14.60;;;6.43;;
5349;SDS011;2697;42.144;24.794;2023-07-20T02:48:44;35.20;;;8.47;;
5349;SDS011;2697;42.144;24.794;2023-07-20T02:51:10;12.20;;;7.53;;
5349;SDS011;2697;42.144;24.794;2023-07-20T02:53:37;14.07;;;6.93;;
5349;SDS011;2697;42.144;24.794;2023-07-20T02:56:03;28.03;;;7.47;;
5349;SDS011;2697;42.144;24.794;2023-07-20T02:58:28;16.53;;;8.00;;
5349;SDS011;2697;42.144;24.794;2023-07-20T03:00:54;37.57;;;8.83;;
5349;SDS011;2697;42.144;24.794;2023-07-20T03:03:19;20.87;;;7.13;;
5349;SDS011;2697;42.144;24.794;2023-07-20T03:05:45;23.17;;;6.90;;
5349;SDS011;2697;42.144;24.794;2023-07-20T03:08:10;15.80;;;6.47;;
5349;SDS011;2697;42.144;24.794;2023-07-20T03:10:39;10.27;;;5.03;;
5349;SDS011;2697;42.144;24.794;2023-07-20T03:13:08;10.20;;;6.10;;
5349;SDS011;2697;42.144;24.794;2023-07-20T03:15:34;23.87;;;6.90;;
5349;SDS011;2697;42.144;24.794;2023-07-20T03:17:59;18.27;;;6.60;;
5349;SDS011;2697;42.144;24.794;2023-07-20T03:20:24;21.60;;;6.53;;
5349;SDS011;2697;42.144;24.794;2023-07-20T03:22:50;23.33;;;6.90;;
5349;SDS011;2697;42.144;24.794;2023-07-20T03:25:16;17.37;;;8.00;;
5349;SDS011;2697;42.144;24.794;2023-07-20T03:27:42;21.93;;;7.43;;
5349;SDS011;2697;42.144;24.794;2023-07-20T03:30:08;21.17;;;7.80;;
5349;SDS011;2697;42.144;24.794;2023-07-20T03:32:35;17.70;;;6.60;;
5349;SDS011;2697;42.144;24.794;2023-07-20T03:35:00;15.93;;;7.47;;
5349;SDS011;2697;42.144;24.794;2023-07-20T03:37:26;29.37;;;8.33;;
5349;SDS011;2697;42.144;24.794;2023-07-20T03:39:51;19.77;;;7.80;;
5349;SDS011;2697;42.144;24.794;2023-07-20T03:42:17;19.57;;;7.20;;
5349;SDS011;2697;42.144;24.794;2023-07-20T03:44:42;29.67;;;7.90;;
5349;SDS011;2697;42.144;24.794;2023-07-20T03:47:07;25.90;;;9.23;;
5349;SDS011;2697;42.144;24.794;2023-07-20T03:49:34;28.03;;;8.17;;
5349;SDS011;2697;42.144;24.794;2023-07-20T03:52:00;39.73;;;9.63;;
5349;SDS011;2697;42.144;24.794;2023-07-20T03:54:26;34.23;;;8.37;;
5349;SDS011;2697;42.144;24.794;2023-07-20T03:56:51;48.70;;;10.00;;
5349;SDS011;2697;42.144;24.794;2023-07-20T03:59:17;20.57;;;8.97;;
5349;SDS011;2697;42.144;24.794;2023-07-20T04:01:42;24.70;;;8.20;;
5349;SDS011;2697;42.144;24.794;2023-07-20T04:04:07;44.40;;;10.67;;
5349;SDS011;2697;42.144;24.794;2023-07-20T04:06:33;50.73;;;9.00;;
5349;SDS011;2697;42.144;24.794;2023-07-20T04:08:59;31.07;;;8.27;;
5349;SDS011;2697;42.144;24.794;2023-07-20T04:11:24;54.70;;;10.60;;
5349;SDS011;2697;42.144;24.794;2023-07-20T04:13:50;37.30;;;8.83;;
5349;SDS011;2697;42.144;24.794;2023-07-20T04:16:15;41.97;;;9.90;;
5349;SDS011;2697;42.144;24.794;2023-07-20T04:18:40;26.13;;;7.53;;
5349;SDS011;2697;42.144;24.794;2023-07-20T04:21:07;22.17;;;8.33;;
5349;SDS011;2697;42.144;24.794;2023-07-20T04:23:33;16.10;;;6.57;;
5349;SDS011;2697;42.144;24.794;2023-07-20T04:26:00;35.03;;;7.53;;
5349;SDS011;2697;42.144;24.794;2023-07-20T04:28:25;18.40;;;6.80;;
5349;SDS011;2697;42.144;24.794;2023-07-20T04:30:52;23.57;;;7.20;;
5349;SDS011;2697;42.144;24.794;2023-07-20T04:33:17;46.13;;;7.80;;
5349;SDS011;2697;42.144;24.794;2023-07-20T04:38:18;22.40;;;6.90;;
5349;SDS011;2697;42.144;24.794;2023-07-20T04:40:48;21.50;;;6.70;;
5349;SDS011;2697;42.144;24.794;2023-07-20T04:43:14;28.97;;;7.33;;
5349;SDS011;2697;42.144;24.794;2023-07-20T04:45:40;29.47;;;6.57;;
5349;SDS011;2697;42.144;24.794;2023-07-20T04:48:07;59.37;;;7.63;;
5349;SDS011;2697;42.144;24.794;2023-07-20T04:50:36;12.03;;;6.50;;
5349;SDS011;2697;42.144;24.794;2023-07-20T04:53:02;23.23;;;6.37;;
5349;SDS011;2697;42.144;24.794;2023-07-20T04:55:28;12.60;;;5.97;;
5349;SDS011;2697;42.144;24.794;2023-07-20T04:57:53;19.43;;;6.10;;
5349;SDS011;2697;42.144;24.794;2023-07-20T05:00:19;25.75;;;6.43;;
5349;SDS011;2697;42.144;24.794;2023-07-20T05:02:44;13.45;;;6.20;;
5349;SDS011;2697;42.144;24.794;2023-07-20T05:05:12;29.23;;;8.05;;
5349;SDS011;2697;42.144;24.794;2023-07-20T05:07:38;13.48;;;7.32;;
5349;SDS011;2697;42.144;24.794;2023-07-20T05:10:03;12.90;;;6.40;;
5349;SDS011;2697;42.144;24.794;2023-07-20T05:12:29;13.30;;;5.55;;
5349;SDS011;2697;42.144;24.794;2023-07-20T05:14:55;19.85;;;6.50;;
5349;SDS011;2697;42.144;24.794;2023-07-20T05:17:20;26.00;;;6.43;;
5349;SDS011;2697;42.144;24.794;2023-07-20T05:19:45;15.43;;;6.45;;
5349;SDS011;2697;42.144;24.794;2023-07-20T05:22:12;17.15;;;7.53;;
5349;SDS011;2697;42.144;24.794;2023-07-20T05:24:38;15.07;;;5.70;;
5349;SDS011;2697;42.144;24.794;2023-07-20T05:27:04;24.52;;;7.00;;
5349;SDS011;2697;42.144;24.794;2023-07-20T05:29:29;36.10;;;8.02;;
5349;SDS011;2697;42.144;24.794;2023-07-20T05:31:55;18.25;;;5.95;;
5349;SDS011;2697;42.144;24.794;2023-07-20T05:34:20;21.45;;;5.85;;
5349;SDS011;2697;42.144;24.794;2023-07-20T05:36:46;17.27;;;5.93;;
5349;SDS011;2697;42.144;24.794;2023-07-20T05:39:11;31.55;;;6.30;;
5349;SDS011;2697;42.144;24.794;2023-07-20T05:41:36;21.85;;;5.45;;
5349;SDS011;2697;42.144;24.794;2023-07-20T05:44:02;19.15;;;5.97;;
5349;SDS011;2697;42.144;24.794;2023-07-20T05:46:27;17.35;;;6.13;;
5349;SDS011;2697;42.144;24.794;2023-07-20T05:48:52;13.18;;;5.10;;
5349;SDS011;2697;42.144;24.794;2023-07-20T05:51:18;13.95;;;4.80;;
5349;SDS011;2697;42.144;24.794;2023-07-20T05:53:44;9.30;;;5.30;;
5349;SDS011;2697;42.144;24.794;2023-07-20T05:56:09;15.82;;;5.07;;
5349;SDS011;2697;42.144;24.794;2023-07-20T05:58:35;10.27;;;5.50;;
5349;SDS011;2697;42.144;24.794;2023-07-20T06:01:01;19.23;;;5.18;;
5349;SDS011;2697;42.144;24.794;2023-07-20T06:03:27;9.27;;;5.43;;
5349;SDS011;2697;42.144;24.794;2023-07-20T06:05:57;12.05;;;5.60;;
5349;SDS011;2697;42.144;24.794;2023-07-20T06:08:24;14.38;;;6.22;;
5349;SDS011;2697;42.144;24.794;2023-07-20T06:10:50;6.97;;;5.20;;
5349;SDS011;2697;42.144;24.794;2023-07-20T06:13:17;16.60;;;5.07;;
5349;SDS011;2697;42.144;24.794;2023-07-20T06:15:42;30.38;;;6.07;;
5349;SDS011;2697;42.144;24.794;2023-07-20T06:18:08;19.30;;;4.75;;
5349;SDS011;2697;42.144;24.794;2023-07-20T06:20:34;9.27;;;5.53;;
5349;SDS011;2697;42.144;24.794;2023-07-20T06:22:59;20.25;;;5.60;;
5349;SDS011;2697;42.144;24.794;2023-07-20T06:25:24;58.05;;;8.45;;
5349;SDS011;2697;42.144;24.794;2023-07-20T06:27:50;21.38;;;5.68;;
5349;SDS011;2697;42.144;24.794;2023-07-20T06:30:19;18.33;;;5.00;;
5349;SDS011;2697;42.144;24.794;2023-07-20T06:32:44;9.80;;;4.40;;
5349;SDS011;2697;42.144;24.794;2023-07-20T06:35:10;14.68;;;5.70;;
5349;SDS011;2697;42.144;24.794;2023-07-20T06:37:36;15.23;;;5.53;;
5349;SDS011;2697;42.144;24.794;2023-07-20T06:40:02;11.80;;;5.13;;
5349;SDS011;2697;42.144;24.794;2023-07-20T06:42:28;11.77;;;4.07;;
5349;SDS011;2697;42.144;24.794;2023-07-20T06:44:54;14.35;;;5.57;;
5349;SDS011;2697;42.144;24.794;2023-07-20T06:47:20;15.93;;;6.65;;
5349;SDS011;2697;42.144;24.794;2023-07-20T06:49:45;12.98;;;5.18;;
5349;SDS011;2697;42.144;24.794;2023-07-20T06:52:11;10.70;;;6.00;;
5349;SDS011;2697;42.144;24.794;2023-07-20T06:54:36;8.13;;;5.40;;
5349;SDS011;2697;42.144;24.794;2023-07-20T06:57:01;12.73;;;5.45;;
5349;SDS011;2697;42.144;24.794;2023-07-20T06:59:27;17.50;;;5.03;;
5349;SDS011;2697;42.144;24.794;2023-07-20T07:01:52;13.65;;;5.43;;
5349;SDS011;2697;42.144;24.794;2023-07-20T07:04:17;10.77;;;4.28;;
5349;SDS011;2697;42.144;24.794;2023-07-20T07:06:43;15.73;;;5.03;;
5349;SDS011;2697;42.144;24.794;2023-07-20T07:09:09;10.52;;;4.85;;
5349;SDS011;2697;42.144;24.794;2023-07-20T07:11:34;10.20;;;5.07;;
5349;SDS011;2697;42.144;24.794;2023-07-20T07:14:00;15.13;;;4.82;;
5349;SDS011;2697;42.144;24.794;2023-07-20T07:16:25;9.55;;;4.47;;
5349;SDS011;2697;42.144;24.794;2023-07-20T07:18:50;6.28;;;3.85;;
5349;SDS011;2697;42.144;24.794;2023-07-20T07:21:16;12.20;;;5.15;;
5349;SDS011;2697;42.144;24.794;2023-07-20T07:23:42;13.95;;;4.70;;
5349;SDS011;2697;42.144;24.794;2023-07-20T07:26:09;16.15;;;5.63;;
5349;SDS011;2697;42.144;24.794;2023-07-20T07:28:34;15.63;;;4.68;;
5349;SDS011;2697;42.144;24.794;2023-07-20T07:31:00;9.95;;;4.35;;
5349;SDS011;2697;42.144;24.794;2023-07-20T07:33:25;10.45;;;4.75;;
5349;SDS011;2697;42.144;24.794;2023-07-20T07:35:51;13.63;;;4.47;;
5349;SDS011;2697;42.144;24.794;2023-07-20T07:38:19;22.58;;;5.25;;
5349;SDS011;2697;42.144;24.794;2023-07-20T07:40:45;8.13;;;4.88;;
5349;SDS011;2697;42.144;24.794;2023-07-20T07:43:11;14.75;;;4.65;;
5349;SDS011;2697;42.144;24.794;2023-07-20T07:45:38;14.25;;;4.50;;
5349;SDS011;2697;42.144;24.794;2023-07-20T07:48:04;16.73;;;5.13;;
5349;SDS011;2697;42.144;24.794;2023-07-20T07:50:32;13.80;;;5.05;;
5349;SDS011;2697;42.144;24.794;2023-07-20T07:52:58;15.02;;;4.70;;
5349;SDS011;2697;42.144;24.794;2023-07-20T07:55:24;11.00;;;5.05;;
5349;SDS011;2697;42.144;24.794;2023-07-20T07:57:51;10.75;;;5.53;;
5349;SDS011;2697;42.144;24.794;2023-07-20T08:00:17;16.10;;;5.85;;
5349;SDS011;2697;42.144;24.794;2023-07-20T08:02:44;12.30;;;5.53;;
5349;SDS011;2697;42.144;24.794;2023-07-20T08:05:11;10.25;;;4.90;;
5349;SDS011;2697;42.144;24.794;2023-07-20T08:07:37;12.35;;;5.10;;
5349;SDS011;2697;42.144;24.794;2023-07-20T08:10:03;16.33;;;5.22;;
5349;SDS011;2697;42.144;24.794;2023-07-20T08:12:30;16.70;;;5.18;;
5349;SDS011;2697;42.144;24.794;2023-07-20T08:14:55;17.63;;;4.82;;
5349;SDS011;2697;42.144;24.794;2023-07-20T08:17:21;20.08;;;5.32;;
5349;SDS011;2697;42.144;24.794;2023-07-20T08:19:46;8.32;;;3.67;;
5349;SDS011;2697;42.144;24.794;2023-07-20T08:22:12;13.35;;;4.70;;
5349;SDS011;2697;42.144;24.794;2023-07-20T08:24:40;9.05;;;5.07;;
5349;SDS011;2697;42.144;24.794;2023-07-20T08:27:06;30.27;;;7.53;;
5349;SDS011;2697;42.144;24.794;2023-07-20T08:29:33;18.17;;;4.97;;
5349;SDS011;2697;42.144;24.794;2023-07-20T08:31:58;8.95;;;4.75;;
5349;SDS011;2697;42.144;24.794;2023-07-20T08:34:24;6.97;;;4.75;;
5349;SDS011;2697;42.144;24.794;2023-07-20T08:36:49;7.82;;;5.50;;
5349;SDS011;2697;42.144;24.794;2023-07-20T08:39:14;23.67;;;5.07;;
5349;SDS011;2697;42.144;24.794;2023-07-20T08:41:41;13.15;;;4.97;;
5349;SDS011;2697;42.144;24.794;2023-07-20T08:44:08;13.50;;;5.05;;
5349;SDS011;2697;42.144;24.794;2023-07-20T08:46:34;23.15;;;5.38;;
5349;SDS011;2697;42.144;24.794;2023-07-20T08:49:01;9.30;;;4.88;;
5349;SDS011;2697;42.144;24.794;2023-07-20T08:51:28;11.95;;;5.93;;
5349;SDS011;2697;42.144;24.794;2023-07-20T08:53:55;27.85;;;4.80;;
5349;SDS011;2697;42.144;24.794;2023-07-20T08:56:20;8.93;;;5.32;;
5349;SDS011;2697;42.144;24.794;2023-07-20T08:58:49;7.25;;;5.32;;
5349;SDS011;2697;42.144;24.794;2023-07-20T09:01:14;17.42;;;5.75;;
5349;SDS011;2697;42.144;24.794;2023-07-20T09:03:42;21.52;;;5.57;;
5349;SDS011;2697;42.144;24.794;2023-07-20T09:06:10;10.48;;;6.18;;
5349;SDS011;2697;42.144;24.794;2023-07-20T09:08:39;15.68;;;7.15;;
5349;SDS011;2697;42.144;24.794;2023-07-20T09:11:05;18.75;;;5.70;;
5349;SDS011;2697;42.144;24.794;2023-07-20T09:13:32;18.80;;;5.47;;
5349;SDS011;2697;42.144;24.794;2023-07-20T09:15:57;14.13;;;5.80;;
5349;SDS011;2697;42.144;24.794;2023-07-20T09:18:24;8.50;;;5.35;;
5349;SDS011;2697;42.144;24.794;2023-07-20T09:20:57;11.93;;;5.38;;
5349;SDS011;2697;42.144;24.794;2023-07-20T09:23:30;20.33;;;5.43;;
5349;SDS011;2697;42.144;24.794;2023-07-20T09:25:59;11.98;;;5.15;;
5349;SDS011;2697;42.144;24.794;2023-07-20T09:28:25;10.32;;;4.90;;
5349;SDS011;2697;42.144;24.794;2023-07-20T09:30:51;13.30;;;5.13;;
5349;SDS011;2697;42.144;24.794;2023-07-20T09:33:23;14.23;;;5.22;;
5349;SDS011;2697;42.144;24.794;2023-07-20T09:35:49;11.77;;;5.53;;
5349;SDS011;2697;42.144;24.794;2023-07-20T09:38:15;20.77;;;5.38;;
5349;SDS011;2697;42.144;24.794;2023-07-20T09:40:40;29.05;;;6.00;;
5349;SDS011;2697;42.144;24.794;2023-07-20T09:43:07;13.80;;;6.40;;
5349;SDS011;2697;42.144;24.794;2023-07-20T09:45:34;8.45;;;5.35;;
5349;SDS011;2697;42.144;24.794;2023-07-20T09:48:07;17.67;;;5.57;;
5349;SDS011;2697;42.144;24.794;2023-07-20T09:50:36;15.60;;;6.10;;
5349;SDS011;2697;42.144;24.794;2023-07-20T09:53:06;30.08;;;5.10;;
5349;SDS011;2697;42.144;24.794;2023-07-20T09:55:32;16.45;;;5.13;;
5349;SDS011;2697;42.144;24.794;2023-07-20T09:57:59;18.33;;;5.35;;
5349;SDS011;2697;42.144;24.794;2023-07-20T10:00:25;5.95;;;4.65;;
5349;SDS011;2697;42.144;24.794;2023-07-20T10:02:51;19.05;;;6.60;;
5349;SDS011;2697;42.144;24.794;2023-07-20T10:05:17;19.13;;;8.52;;
5349;SDS011;2697;42.144;24.794;2023-07-20T10:07:45;15.50;;;5.15;;
5349;SDS011;2697;42.144;24.794;2023-07-20T10:10:14;10.73;;;5.55;;
5349;SDS011;2697;42.144;24.794;2023-07-20T10:12:43;14.90;;;5.95;;
5349;SDS011;2697;42.144;24.794;2023-07-20T10:17:57;14.45;;;5.60;;
5349;SDS011;2697;42.144;24.794;2023-07-20T10:20:27;19.30;;;5.53;;
5349;SDS011;2697;42.144;24.794;2023-07-20T10:22:54;18.20;;;5.78;;
5349;SDS011;2697;42.144;24.794;2023-07-20T10:25:24;22.23;;;5.95;;
5349;SDS011;2697;42.144;24.794;2023-07-20T10:27:49;11.82;;;5.70;;
5349;SDS011;2697;42.144;24.794;2023-07-20T10:30:16;13.23;;;5.55;;
5349;SDS011;2697;42.144;24.794;2023-07-20T10:32:43;10.52;;;5.63;;
5349;SDS011;2697;42.144;24.794;2023-07-20T10:35:12;14.90;;;5.45;;
5349;SDS011;2697;42.144;24.794;2023-07-20T10:40:26;8.75;;;4.90;;
5349;SDS011;2697;42.144;24.794;2023-07-20T10:43:09;15.85;;;6.63;;
5349;SDS011;2697;42.144;24.794;2023-07-20T10:45:35;18.85;;;5.70;;
5349;SDS011;2697;42.144;24.794;2023-07-20T10:48:22;11.63;;;5.05;;
5349;SDS011;2697;42.144;24.794;2023-07-20T10:53:44;16.38;;;5.57;;
5349;SDS011;2697;42.144;24.794;2023-07-20T10:56:14;20.85;;;6.43;;
5349;SDS011;2697;42.144;24.794;2023-07-20T10:58:40;10.63;;;4.88;;
5349;SDS011;2697;42.144;24.794;2023-07-20T11:01:07;10.90;;;5.55;;
5349;SDS011;2697;42.144;24.794;2023-07-20T11:03:39;13.07;;;6.35;;
5349;SDS011;2697;42.144;24.794;2023-07-20T11:08:50;19.73;;;5.82;;
5349;SDS011;2697;42.144;24.794;2023-07-20T11:11:30;16.27;;;5.25;;
5349;SDS011;2697;42.144;24.794;2023-07-20T11:14:00;15.48;;;5.60;;
5349;SDS011;2697;42.144;24.794;2023-07-20T11:18:58;20.85;;;5.10;;
5349;SDS011;2697;42.144;24.794;2023-07-20T11:21:24;10.23;;;5.90;;
5349;SDS011;2697;42.144;24.794;2023-07-20T11:23:50;10.57;;;6.30;;
5349;SDS011;2697;42.144;24.794;2023-07-20T11:26:20;15.10;;;5.65;;
5349;SDS011;2697;42.144;24.794;2023-07-20T11:28:49;9.15;;;4.70;;
5349;SDS011;2697;42.144;24.794;2023-07-20T11:31:16;12.07;;;4.75;;
5349;SDS011;2697;42.144;24.794;2023-07-20T11:33:42;10.88;;;5.85;;
5349;SDS011;2697;42.144;24.794;2023-07-20T11:36:08;11.45;;;5.32;;
5349;SDS011;2697;42.144;24.794;2023-07-20T11:38:34;11.45;;;4.82;;
5349;SDS011;2697;42.144;24.794;2023-07-20T11:40:59;14.90;;;5.15;;
5349;SDS011;2697;42.144;24.794;2023-07-20T11:43:25;10.38;;;5.28;;
5349;SDS011;2697;42.144;24.794;2023-07-20T11:45:51;8.10;;;4.95;;
5349;SDS011;2697;42.144;24.794;2023-07-20T11:48:18;6.65;;;4.72;;
5349;SDS011;2697;42.144;24.794;2023-07-20T11:50:43;6.25;;;3.70;;
5349;SDS011;2697;42.144;24.794;2023-07-20T11:53:09;8.98;;;4.00;;
5349;SDS011;2697;42.144;24.794;2023-07-20T11:55:35;9.25;;;3.80;;
5349;SDS011;2697;42.144;24.794;2023-07-20T11:58:04;6.10;;;4.03;;
5349;SDS011;2697;42.144;24.794;2023-07-20T12:00:30;12.73;;;4.88;;
5349;SDS011;2697;42.144;24.794;2023-07-20T12:02:57;11.07;;;3.97;;
5349;SDS011;2697;42.144;24.794;2023-07-20T12:05:23;12.20;;;4.50;;
5349;SDS011;2697;42.144;24.794;2023-07-20T12:07:49;26.08;;;4.38;;
5349;SDS011;2697;42.144;24.794;2023-07-20T12:10:17;17.73;;;4.38;;
5349;SDS011;2697;42.144;24.794;2023-07-20T12:12:50;12.52;;;3.72;;
5349;SDS011;2697;42.144;24.794;2023-07-20T12:17:58;5.78;;;4.15;;
5349;SDS011;2697;42.144;24.794;2023-07-20T12:22:55;7.60;;;4.53;;
5349;SDS011;2697;42.144;24.794;2023-07-20T12:25:37;9.50;;;3.88;;
5349;SDS011;2697;42.144;24.794;2023-07-20T12:28:04;23.70;;;4.07;;
5349;SDS011;2697;42.144;24.794;2023-07-20T12:30:31;6.65;;;3.97;;
5349;SDS011;2697;42.144;24.794;2023-07-20T12:32:58;17.92;;;4.63;;
5349;SDS011;2697;42.144;24.794;2023-07-20T12:35:23;6.38;;;4.45;;
5349;SDS011;2697;42.144;24.794;2023-07-20T12:37:49;9.38;;;4.53;;
5349;SDS011;2697;42.144;24.794;2023-07-20T12:40:15;8.23;;;4.05;;
5349;SDS011;2697;42.144;24.794;2023-07-20T12:42:41;7.63;;;4.50;;
5349;SDS011;2697;42.144;24.794;2023-07-20T12:45:06;16.63;;;4.88;;
5349;SDS011;2697;42.144;24.794;2023-07-20T12:47:32;17.60;;;5.13;;
5349;SDS011;2697;42.144;24.794;2023-07-20T12:49:57;8.18;;;4.13;;
5349;SDS011;2697;42.144;24.794;2023-07-20T12:52:23;7.85;;;4.47;;
5349;SDS011;2697;42.144;24.794;2023-07-20T12:54:48;12.32;;;5.95;;
5349;SDS011;2697;42.144;24.794;2023-07-20T12:57:14;31.20;;;11.55;;
5349;SDS011;2697;42.144;24.794;2023-07-20T12:59:39;30.90;;;7.03;;
5349;SDS011;2697;42.144;24.794;2023-07-20T13:02:04;34.00;;;5.18;;
5349;SDS011;2697;42.144;24.794;2023-07-20T13:04:31;25.38;;;5.20;;
5349;SDS011;2697;42.144;24.794;2023-07-20T13:06:56;7.80;;;4.20;;
5349;SDS011;2697;42.144;24.794;2023-07-20T13:09:23;11.88;;;4.70;;
5349;SDS011;2697;42.144;24.794;2023-07-20T13:11:49;9.63;;;4.95;;
5349;SDS011;2697;42.144;24.794;2023-07-20T13:14:14;12.55;;;5.63;;
5349;SDS011;2697;42.144;24.794;2023-07-20T13:16:39;9.45;;;4.60;;
5349;SDS011;2697;42.144;24.794;2023-07-20T13:19:05;8.52;;;4.50;;
5349;SDS011;2697;42.144;24.794;2023-07-20T13:21:30;7.70;;;5.00;;
5349;SDS011;2697;42.144;24.794;2023-07-20T13:23:55;25.40;;;4.60;;
5349;SDS011;2697;42.144;24.794;2023-07-20T13:26:21;7.43;;;4.38;;
5349;SDS011;2697;42.144;24.794;2023-07-20T13:28:47;11.32;;;6.30;;
5349;SDS011;2697;42.144;24.794;2023-07-20T13:31:12;12.90;;;5.20;;
5349;SDS011;2697;42.144;24.794;2023-07-20T13:33:37;15.38;;;4.70;;
5349;SDS011;2697;42.144;24.794;2023-07-20T13:36:03;11.52;;;4.85;;
5349;SDS011;2697;42.144;24.794;2023-07-20T13:38:30;14.88;;;4.20;;
5349;SDS011;2697;42.144;24.794;2023-07-20T13:40:56;10.35;;;4.28;;
5349;SDS011;2697;42.144;24.794;2023-07-20T13:43:22;13.90;;;4.03;;
5349;SDS011;2697;42.144;24.794;2023-07-20T13:45:47;13.48;;;4.30;;
5349;SDS011;2697;42.144;24.794;2023-07-20T13:48:13;17.42;;;5.18;;
5349;SDS011;2697;42.144;24.794;2023-07-20T13:50:39;8.73;;;3.85;;
5349;SDS011;2697;42.144;24.794;2023-07-20T13:53:04;13.35;;;4.43;;
5349;SDS011;2697;42.144;24.794;2023-07-20T13:55:30;18.38;;;4.22;;
5349;SDS011;2697;42.144;24.794;2023-07-20T13:57:58;19.65;;;4.68;;
5349;SDS011;2697;42.144;24.794;2023-07-20T14:00:24;20.90;;;4.57;;
5349;SDS011;2697;42.144;24.794;2023-07-20T14:02:51;10.23;;;4.30;;
5349;SDS011;2697;42.144;24.794;2023-07-20T14:05:18;22.40;;;4.43;;
5349;SDS011;2697;42.144;24.794;2023-07-20T14:07:44;17.23;;;4.13;;
5349;SDS011;2697;42.144;24.794;2023-07-20T14:10:09;11.35;;;4.68;;
5349;SDS011;2697;42.144;24.794;2023-07-20T14:12:35;18.88;;;4.18;;
5349;SDS011;2697;42.144;24.794;2023-07-20T14:15:00;8.43;;;4.20;;
5349;SDS011;2697;42.144;24.794;2023-07-20T14:17:27;16.38;;;4.80;;
5349;SDS011;2697;42.144;24.794;2023-07-20T14:19:52;8.68;;;4.53;;
5349;SDS011;2697;42.144;24.794;2023-07-20T14:22:18;8.73;;;3.67;;
5349;SDS011;2697;42.144;24.794;2023-07-20T14:24:43;36.58;;;4.40;;
5349;SDS011;2697;42.144;24.794;2023-07-20T14:27:09;12.02;;;4.18;;
5349;SDS011;2697;42.144;24.794;2023-07-20T14:29:34;11.35;;;4.20;;
5349;SDS011;2697;42.144;24.794;2023-07-20T14:32:01;6.47;;;4.15;;
5349;SDS011;2697;42.144;24.794;2023-07-20T14:34:26;18.90;;;3.97;;
5349;SDS011;2697;42.144;24.794;2023-07-20T14:36:52;11.77;;;4.70;;
5349;SDS011;2697;42.144;24.794;2023-07-20T14:39:18;13.55;;;4.70;;
5349;SDS011;2697;42.144;24.794;2023-07-20T14:41:45;14.27;;;4.95;;
5349;SDS011;2697;42.144;24.794;2023-07-20T14:44:10;25.80;;;4.15;;
5349;SDS011;2697;42.144;24.794;2023-07-20T14:46:36;16.98;;;4.15;;
5349;SDS011;2697;42.144;24.794;2023-07-20T14:49:01;11.07;;;4.47;;
5349;SDS011;2697;42.144;24.794;2023-07-20T14:51:27;7.38;;;3.22;;
5349;SDS011;2697;42.144;24.794;2023-07-20T14:53:58;10.05;;;3.38;;
5349;SDS011;2697;42.144;24.794;2023-07-20T14:56:23;8.10;;;4.03;;
5349;SDS011;2697;42.144;24.794;2023-07-20T14:58:49;11.15;;;4.28;;
5349;SDS011;2697;42.144;24.794;2023-07-20T15:01:14;7.32;;;3.00;;
5349;SDS011;2697;42.144;24.794;2023-07-20T15:03:39;11.07;;;2.83;;
5349;SDS011;2697;42.144;24.794;2023-07-20T15:06:09;52.00;;;4.78;;
5349;SDS011;2697;42.144;24.794;2023-07-20T15:08:36;17.90;;;3.97;;
5349;SDS011;2697;42.144;24.794;2023-07-20T15:11:01;9.32;;;2.83;;
5349;SDS011;2697;42.144;24.794;2023-07-20T15:13:27;12.77;;;3.85;;
5349;SDS011;2697;42.144;24.794;2023-07-20T15:15:52;7.25;;;3.05;;
5349;SDS011;2697;42.144;24.794;2023-07-20T15:18:18;17.98;;;4.15;;
5349;SDS011;2697;42.144;24.794;2023-07-20T15:20:43;12.73;;;3.45;;